sensor_id;sensor_type;location;lat;lon;timestamp;pressure;altitude;pressure_sealevel;temperature;humidity
71966;BME280;59836;52.132;5.442;2023-03-19T00:01:54;101084.19;;;11.12;86.90
71966;BME280;59836;52.132;5.442;2023-03-19T00:04:20;101093.41;;;11.11;87.15
71966;BME280;59836;52.132;5.442;2023-03-19T00:06:47;101095.03;;;11.12;87.23
71966;BME280;59836;52.132;5.442;2023-03-19T00:09:13;101096.66;;;11.13;87.75
71966;BME280;59836;52.132;5.442;2023-03-19T00:11:40;101098.28;;;11.14;87.95
71966;BME280;59836;52.132;5.442;2023-03-19T00:14:07;101092.84;;;11.14;87.78
71966;BME280;59836;52.132;5.442;2023-03-19T00:16:34;101100.47;;;11.12;88.20
71966;BME280;59836;52.132;5.442;2023-03-19T00:19:02;101089.63;;;11.12;88.41
71966;BME280;59836;52.132;5.442;2023-03-19T00:21:29;101091.78;;;11.10;88.32
71966;BME280;59836;52.132;5.442;2023-03-19T00:23:57;101089.63;;;11.12;88.46
71966;BME280;59836;52.132;5.442;2023-03-19T00:26:28;101100.47;;;11.12;88.55
71966;BME280;59836;52.132;5.442;2023-03-19T00:28:55;101103.72;;;11.09;88.85
71966;BME280;59836;52.132;5.442;2023-03-19T00:31:22;101107.78;;;11.06;88.81
71966;BME280;59836;52.132;5.442;2023-03-19T00:33:49;101097.19;;;11.05;88.81
71966;BME280;59836;52.132;5.442;2023-03-19T00:36:16;101106.41;;;11.04;89.05
71966;BME280;59836;52.132;5.442;2023-03-19T00:38:44;101105.88;;;11.02;89.01
71966;BME280;59836;52.132;5.442;2023-03-19T00:41:11;101105.88;;;11.02;89.50
71966;BME280;59836;52.132;5.442;2023-03-19T00:43:39;101108.81;;;11.00;89.49
71966;BME280;59836;52.132;5.442;2023-03-19T00:46:05;101108.56;;;10.97;89.57
71966;BME280;59836;52.132;5.442;2023-03-19T00:48:32;101101.50;;;10.96;89.23
71966;BME280;59836;52.132;5.442;2023-03-19T00:51:06;101110.97;;;10.93;89.26
71966;BME280;59836;52.132;5.442;2023-03-19T00:53:41;101110.41;;;10.91;89.46
71966;BME280;59836;52.132;5.442;2023-03-19T00:56:12;101109.63;;;10.90;89.59
71966;BME280;59836;52.132;5.442;2023-03-19T00:58:39;101099.28;;;10.87;89.39
71966;BME280;59836;52.132;5.442;2023-03-19T01:01:11;101101.47;;;10.85;89.62
71966;BME280;59836;52.132;5.442;2023-03-19T01:03:38;101101.47;;;10.85;89.74
71966;BME280;59836;52.132;5.442;2023-03-19T01:06:05;101108.22;;;10.83;89.73
71966;BME280;59836;52.132;5.442;2023-03-19T01:08:32;101111.72;;;10.78;89.54
71966;BME280;59836;52.132;5.442;2023-03-19T01:11:10;101112.25;;;10.75;89.40
71966;BME280;59836;52.132;5.442;2023-03-19T01:13:37;101125.00;;;10.74;89.54
71966;BME280;59836;52.132;5.442;2023-03-19T01:16:04;101126.31;;;10.67;89.78
71966;BME280;59836;52.132;5.442;2023-03-19T01:18:31;101129.56;;;10.63;89.56
71966;BME280;59836;52.132;5.442;2023-03-19T01:20:58;101124.38;;;10.62;89.52
71966;BME280;59836;52.132;5.442;2023-03-19T01:23:24;101122.50;;;10.62;89.89
71966;BME280;59836;52.132;5.442;2023-03-19T01:25:51;101125.75;;;10.59;89.61
71966;BME280;59836;52.132;5.442;2023-03-19T01:28:18;101115.13;;;10.53;90.14
71966;BME280;59836;52.132;5.442;2023-03-19T01:30:44;101118.63;;;10.48;89.73
71966;BME280;59836;52.132;5.442;2023-03-19T01:33:11;101105.56;;;10.40;89.76
71966;BME280;59836;52.132;5.442;2023-03-19T01:35:37;101113.09;;;10.38;89.92
71966;BME280;59836;52.132;5.442;2023-03-19T01:38:04;101112.00;;;10.33;90.10
71966;BME280;59836;52.132;5.442;2023-03-19T01:40:31;101110.34;;;10.32;90.10
71966;BME280;59836;52.132;5.442;2023-03-19T01:45:36;101119.31;;;10.33;90.63
71966;BME280;59836;52.132;5.442;2023-03-19T01:48:04;101106.56;;;10.33;90.30
71966;BME280;59836;52.132;5.442;2023-03-19T01:50:41;101117.97;;;10.36;90.57
71966;BME280;59836;52.132;5.442;2023-03-19T01:53:10;101115.25;;;10.36;90.31
71966;BME280;59836;52.132;5.442;2023-03-19T01:55:39;101118.53;;;10.38;90.69
71966;BME280;59836;52.132;5.442;2023-03-19T01:58:07;101117.22;;;10.40;90.85
71966;BME280;59836;52.132;5.442;2023-03-19T02:00:34;101116.41;;;10.40;90.68
71966;BME280;59836;52.132;5.442;2023-03-19T02:03:04;101126.16;;;10.41;91.06
71966;BME280;59836;52.132;5.442;2023-03-19T02:05:32;101120.16;;;10.39;90.52
71966;BME280;59836;52.132;5.442;2023-03-19T02:08:02;101116.41;;;10.40;91.18
71966;BME280;59836;52.132;5.442;2023-03-19T02:10:30;101122.88;;;10.39;90.66
71966;BME280;59836;52.132;5.442;2023-03-19T02:12:57;101126.94;;;10.36;90.89
71966;BME280;59836;52.132;5.442;2023-03-19T02:15:24;101127.25;;;10.40;91.16
71966;BME280;59836;52.132;5.442;2023-03-19T02:17:50;101130.78;;;10.40;90.92
71966;BME280;59836;52.132;5.442;2023-03-19T02:20:31;101126.44;;;10.39;91.33
71966;BME280;59836;52.132;5.442;2023-03-19T02:23:08;101131.00;;;10.39;90.73
71966;BME280;59836;52.132;5.442;2023-03-19T02:28:14;101127.25;;;10.40;91.21
71966;BME280;59836;52.132;5.442;2023-03-19T02:30:42;101123.47;;;10.41;91.21
71966;BME280;59836;52.132;5.442;2023-03-19T02:33:13;101116.41;;;10.40;90.99
71966;BME280;59836;52.132;5.442;2023-03-19T02:35:41;101116.97;;;10.42;90.89
71966;BME280;59836;52.132;5.442;2023-03-19T02:38:10;101120.69;;;10.36;91.22
71966;BME280;59836;52.132;5.442;2023-03-19T02:41:02;101128.25;;;10.33;90.64
71966;BME280;59836;52.132;5.442;2023-03-19T02:43:32;101127.16;;;10.29;90.83
71966;BME280;59836;52.132;5.442;2023-03-19T02:46:01;101128.19;;;10.23;91.23
71966;BME280;59836;52.132;5.442;2023-03-19T02:48:27;101124.91;;;10.21;91.28
71966;BME280;59836;52.132;5.442;2023-03-19T02:50:54;101133.00;;;10.16;91.23
71966;BME280;59836;52.132;5.442;2023-03-19T02:53:21;101133.00;;;10.16;90.77
71966;BME280;59836;52.132;5.442;2023-03-19T02:55:48;101128.94;;;10.13;91.62
71966;BME280;59836;52.132;5.442;2023-03-19T02:58:14;101135.16;;;10.14;91.40
71966;BME280;59836;52.132;5.442;2023-03-19T03:00:41;101137.31;;;10.12;91.49
71966;BME280;59836;52.132;5.442;2023-03-19T03:03:08;101136.00;;;10.14;91.68
71966;BME280;59836;52.132;5.442;2023-03-19T03:05:34;101141.41;;;10.14;91.95
71966;BME280;59836;52.132;5.442;2023-03-19T03:08:02;101134.34;;;10.13;92.07
71966;BME280;59836;52.132;5.442;2023-03-19T03:10:31;101138.94;;;10.13;91.63
71966;BME280;59836;52.132;5.442;2023-03-19T03:12:58;101147.63;;;10.15;92.09
71966;BME280;59836;52.132;5.442;2023-03-19T03:15:25;101132.22;;;10.15;92.12
71966;BME280;59836;52.132;5.442;2023-03-19T03:17:51;101136.78;;;10.15;92.18
71966;BME280;59836;52.132;5.442;2023-03-19T03:20:18;101133.84;;;10.16;92.16
71966;BME280;59836;52.132;5.442;2023-03-19T03:22:45;101140.03;;;10.12;92.23
71966;BME280;59836;52.132;5.442;2023-03-19T03:25:12;101150.31;;;10.10;92.12
71966;BME280;59836;52.132;5.442;2023-03-19T03:27:38;101137.03;;;10.08;92.09
71966;BME280;59836;52.132;5.442;2023-03-19T03:30:06;101146.22;;;10.07;92.49
71966;BME280;59836;52.132;5.442;2023-03-19T03:32:34;101150.84;;;10.07;92.47
71966;BME280;59836;52.132;5.442;2023-03-19T03:35:02;101145.44;;;10.07;92.20
71966;BME280;59836;52.132;5.442;2023-03-19T03:37:29;101150.03;;;10.06;91.85
71966;BME280;59836;52.132;5.442;2023-03-19T03:39:56;101140.78;;;10.02;91.84
71966;BME280;59836;52.132;5.442;2023-03-19T03:42:22;101144.84;;;9.99;92.50
71966;BME280;59836;52.132;5.442;2023-03-19T03:44:49;101152.41;;;9.97;91.99
71966;BME280;59836;52.132;5.442;2023-03-19T03:47:15;101156.69;;;9.93;91.82
71966;BME280;59836;52.132;5.442;2023-03-19T03:49:43;101153.44;;;9.91;91.96
71966;BME280;59836;52.132;5.442;2023-03-19T03:52:09;101152.31;;;9.87;91.93
71966;BME280;59836;52.132;5.442;2023-03-19T03:54:36;101153.38;;;9.86;92.74
71966;BME280;59836;52.132;5.442;2023-03-19T03:57:02;101158.78;;;9.86;92.36
71966;BME280;59836;52.132;5.442;2023-03-19T03:59:29;101153.63;;;9.84;91.89
71966;BME280;59836;52.132;5.442;2023-03-19T04:01:56;101157.91;;;9.80;91.97
71966;BME280;59836;52.132;5.442;2023-03-19T04:04:22;101150.56;;;9.75;91.81
71966;BME280;59836;52.132;5.442;2023-03-19T04:06:49;101150.25;;;9.72;91.35
71966;BME280;59836;52.132;5.442;2023-03-19T04:09:15;101146.69;;;9.66;91.92
71966;BME280;59836;52.132;5.442;2023-03-19T04:11:42;101145.56;;;9.62;91.45
71966;BME280;59836;52.132;5.442;2023-03-19T04:14:08;101144.72;;;9.62;92.08
71966;BME280;59836;52.132;5.442;2023-03-19T04:16:35;101147.72;;;9.60;91.82
71966;BME280;59836;52.132;5.442;2023-03-19T04:19:01;101148.22;;;9.57;92.25
71966;BME280;59836;52.132;5.442;2023-03-19T04:21:28;101141.69;;;9.53;91.62
71966;BME280;59836;52.132;5.442;2023-03-19T04:23:55;101146.81;;;9.49;91.26
71966;BME280;59836;52.132;5.442;2023-03-19T04:26:22;101150.25;;;9.44;91.35
71966;BME280;59836;52.132;5.442;2023-03-19T04:28:49;101152.91;;;9.39;91.83
71966;BME280;59836;52.132;5.442;2023-03-19T04:31:15;101151.78;;;9.35;91.32
71966;BME280;59836;52.132;5.442;2023-03-19T04:33:41;101156.06;;;9.31;91.65
71966;BME280;59836;52.132;5.442;2023-03-19T04:36:08;101163.63;;;9.29;91.39
71966;BME280;59836;52.132;5.442;2023-03-19T04:38:35;101159.22;;;9.23;91.38
71966;BME280;59836;52.132;5.442;2023-03-19T04:41:01;101161.84;;;9.18;91.29
71966;BME280;59836;52.132;5.442;2023-03-19T04:43:27;101160.41;;;9.10;91.31
71966;BME280;59836;52.132;5.442;2023-03-19T04:45:54;101160.94;;;9.07;91.42
71966;BME280;59836;52.132;5.442;2023-03-19T04:48:21;101166.84;;;9.04;91.71
71966;BME280;59836;52.132;5.442;2023-03-19T04:50:47;101160.59;;;9.03;91.79
71966;BME280;59836;52.132;5.442;2023-03-19T04:53:18;101158.44;;;9.05;92.01
71966;BME280;59836;52.132;5.442;2023-03-19T04:55:48;101156.31;;;9.07;92.03
71966;BME280;59836;52.132;5.442;2023-03-19T04:58:14;101159.28;;;9.06;91.86
71966;BME280;59836;52.132;5.442;2023-03-19T05:00:41;101157.31;;;9.01;92.47
71966;BME280;59836;52.132;5.442;2023-03-19T05:03:07;101160.28;;;8.99;92.10
71966;BME280;59836;52.132;5.442;2023-03-19T05:05:33;101172.44;;;8.97;91.51
71966;BME280;59836;52.132;5.442;2023-03-19T05:08:00;101179.44;;;8.93;91.69
71966;BME280;59836;52.132;5.442;2023-03-19T05:10:27;101183.63;;;8.83;91.59
71966;BME280;59836;52.132;5.442;2023-03-19T05:12:53;101194.94;;;8.80;91.41
71966;BME280;59836;52.132;5.442;2023-03-19T05:15:19;101189.75;;;8.79;91.60
71966;BME280;59836;52.132;5.442;2023-03-19T05:17:46;101193.81;;;8.76;91.58
71966;BME280;59836;52.132;5.442;2023-03-19T05:20:12;101197.00;;;8.73;91.55
71966;BME280;59836;52.132;5.442;2023-03-19T05:22:39;101194.78;;;8.70;91.56
71966;BME280;59836;52.132;5.442;2023-03-19T05:25:06;101202.06;;;8.69;91.79
71966;BME280;59836;52.132;5.442;2023-03-19T05:27:32;101202.34;;;8.68;91.38
71966;BME280;59836;52.132;5.442;2023-03-19T05:29:59;101197.41;;;8.65;91.59
71966;BME280;59836;52.132;5.442;2023-03-19T05:32:27;101204.97;;;8.63;92.08
71966;BME280;59836;52.132;5.442;2023-03-19T05:34:53;101200.28;;;8.58;91.40
71966;BME280;59836;52.132;5.442;2023-03-19T05:37:20;101197.75;;;8.51;91.53
71966;BME280;59836;52.132;5.442;2023-03-19T05:39:47;101205.88;;;8.51;91.76
71966;BME280;59836;52.132;5.442;2023-03-19T05:42:13;101209.38;;;8.52;91.35
71966;BME280;59836;52.132;5.442;2023-03-19T05:44:40;101212.34;;;8.50;91.90
71966;BME280;59836;52.132;5.442;2023-03-19T05:47:07;101220.44;;;8.50;92.35
71966;BME280;59836;52.132;5.442;2023-03-19T05:49:34;101223.59;;;8.47;91.66
71966;BME280;59836;52.132;5.442;2023-03-19T05:52:00;101225.75;;;8.45;91.31
71966;BME280;59836;52.132;5.442;2023-03-19T05:54:27;101222.47;;;8.43;91.86
71966;BME280;59836;52.132;5.442;2023-03-19T05:56:53;101225.09;;;8.38;91.58
71966;BME280;59836;52.132;5.442;2023-03-19T05:59:20;101234.25;;;8.37;91.67
71966;BME280;59836;52.132;5.442;2023-03-19T06:01:46;101240.72;;;8.36;92.30
71966;BME280;59836;52.132;5.442;2023-03-19T06:04:13;101237.22;;;8.35;91.76
71966;BME280;59836;52.132;5.442;2023-03-19T06:06:39;101242.03;;;8.33;92.14
71966;BME280;59836;52.132;5.442;2023-03-19T06:09:06;101245.56;;;8.34;92.22
71966;BME280;59836;52.132;5.442;2023-03-19T06:11:32;101240.16;;;8.34;92.28
71966;BME280;59836;52.132;5.442;2023-03-19T06:13:58;101247.28;;;8.40;92.70
71966;BME280;59836;52.132;5.442;2023-03-19T06:16:25;101252.78;;;8.45;92.63
71966;BME280;59836;52.132;5.442;2023-03-19T06:18:52;101254.66;;;8.45;92.51
71966;BME280;59836;52.132;5.442;2023-03-19T06:21:18;101255.25;;;8.47;91.85
71966;BME280;59836;52.132;5.442;2023-03-19T06:23:45;101257.69;;;8.48;92.52
71966;BME280;59836;52.132;5.442;2023-03-19T06:26:11;101264.16;;;8.47;92.48
71966;BME280;59836;52.132;5.442;2023-03-19T06:28:38;101256.66;;;8.49;92.64
71966;BME280;59836;52.132;5.442;2023-03-19T06:31:04;101271.81;;;8.50;92.81
71966;BME280;59836;52.132;5.442;2023-03-19T06:33:31;101263.94;;;8.49;92.21
71966;BME280;59836;52.132;5.442;2023-03-19T06:35:58;101266.84;;;8.47;92.76
71966;BME280;59836;52.132;5.442;2023-03-19T06:38:25;101265.56;;;8.50;92.72
71966;BME280;59836;52.132;5.442;2023-03-19T06:40:51;101271.91;;;8.55;92.97
71966;BME280;59836;52.132;5.442;2023-03-19T06:43:18;101275.75;;;8.60;93.04
71966;BME280;59836;52.132;5.442;2023-03-19T06:45:44;101274.75;;;8.66;92.92
71966;BME280;59836;52.132;5.442;2023-03-19T06:48:12;101277.56;;;8.71;93.44
71966;BME280;59836;52.132;5.442;2023-03-19T06:50:38;101269.03;;;8.79;94.02
71966;BME280;59836;52.132;5.442;2023-03-19T06:53:05;101276.38;;;8.84;93.51
71966;BME280;59836;52.132;5.442;2023-03-19T06:55:31;101284.84;;;8.88;93.79
71966;BME280;59836;52.132;5.442;2023-03-19T06:57:57;101284.09;;;8.92;93.71
71966;BME280;59836;52.132;5.442;2023-03-19T07:00:24;101290.41;;;8.98;93.24
71966;BME280;59836;52.132;5.442;2023-03-19T07:02:50;101286.13;;;9.02;94.14
71966;BME280;59836;52.132;5.442;2023-03-19T07:05:17;101292.09;;;9.04;93.42
71966;BME280;59836;52.132;5.442;2023-03-19T07:07:43;101295.72;;;9.10;94.09
71966;BME280;59836;52.132;5.442;2023-03-19T07:10:10;101290.09;;;9.16;93.65
71966;BME280;59836;52.132;5.442;2023-03-19T07:12:36;101300.69;;;9.18;93.15
71966;BME280;59836;52.132;5.442;2023-03-19T07:15:03;101301.84;;;9.22;93.72
71966;BME280;59836;52.132;5.442;2023-03-19T07:17:30;101304.78;;;9.21;93.65
71966;BME280;59836;52.132;5.442;2023-03-19T07:19:56;101309.47;;;9.25;92.81
71966;BME280;59836;52.132;5.442;2023-03-19T07:22:23;101309.78;;;9.29;93.45
71966;BME280;59836;52.132;5.442;2023-03-19T07:24:49;101307.63;;;9.31;93.43
71966;BME280;59836;52.132;5.442;2023-03-19T07:27:16;101317.16;;;9.34;93.05
71966;BME280;59836;52.132;5.442;2023-03-19T07:29:43;101320.09;;;9.32;93.14
71966;BME280;59836;52.132;5.442;2023-03-19T07:32:10;101319.59;;;9.35;93.31
71966;BME280;59836;52.132;5.442;2023-03-19T07:34:36;101329.38;;;9.36;93.50
71966;BME280;59836;52.132;5.442;2023-03-19T07:37:03;101340.19;;;9.36;92.83
71966;BME280;59836;52.132;5.442;2023-03-19T07:39:29;101340.19;;;9.36;93.06
71966;BME280;59836;52.132;5.442;2023-03-19T07:42:02;101342.41;;;9.39;93.38
71966;BME280;59836;52.132;5.442;2023-03-19T07:44:29;101346.19;;;9.38;92.79
71966;BME280;59836;52.132;5.442;2023-03-19T07:46:56;101348.81;;;9.33;93.25
71966;BME280;59836;52.132;5.442;2023-03-19T07:49:29;101353.16;;;9.34;92.78
71966;BME280;59836;52.132;5.442;2023-03-19T07:51:56;101356.34;;;9.31;92.25
71966;BME280;59836;52.132;5.442;2023-03-19T07:54:22;101362.75;;;9.25;92.31
71966;BME280;59836;52.132;5.442;2023-03-19T07:56:50;101363.84;;;9.24;92.88
71966;BME280;59836;52.132;5.442;2023-03-19T07:59:16;101363.59;;;9.25;92.27
71966;BME280;59836;52.132;5.442;2023-03-19T08:01:43;101371.72;;;9.25;92.56
71966;BME280;59836;52.132;5.442;2023-03-19T08:04:09;101370.16;;;9.29;92.78
71966;BME280;59836;52.132;5.442;2023-03-19T08:06:36;101375.88;;;9.33;93.03
71966;BME280;59836;52.132;5.442;2023-03-19T08:09:03;101377.03;;;9.37;93.27
71966;BME280;59836;52.132;5.442;2023-03-19T08:11:38;101379.16;;;9.35;92.98
71966;BME280;59836;52.132;5.442;2023-03-19T08:14:04;101380.56;;;9.38;92.79
71966;BME280;59836;52.132;5.442;2023-03-19T08:16:32;101382.44;;;9.37;92.06
71966;BME280;59836;52.132;5.442;2023-03-19T08:18:58;101377.38;;;9.41;92.50
71966;BME280;59836;52.132;5.442;2023-03-19T08:21:25;101370.38;;;9.45;91.84
71966;BME280;59836;52.132;5.442;2023-03-19T08:23:56;101376.88;;;9.44;91.93
71966;BME280;59836;52.132;5.442;2023-03-19T08:26:23;101378.31;;;9.52;92.36
71966;BME280;59836;52.132;5.442;2023-03-19T08:28:52;101379.75;;;9.59;92.47
71966;BME280;59836;52.132;5.442;2023-03-19T08:31:19;101378.75;;;9.66;92.29
71966;BME280;59836;52.132;5.442;2023-03-19T08:33:45;101384.25;;;9.71;92.36
71966;BME280;59836;52.132;5.442;2023-03-19T08:36:13;101390.56;;;9.77;92.35
71966;BME280;59836;52.132;5.442;2023-03-19T08:38:45;101395.50;;;9.80;91.79
71966;BME280;59836;52.132;5.442;2023-03-19T08:41:12;101394.94;;;9.78;91.43
71966;BME280;59836;52.132;5.442;2023-03-19T08:43:38;101401.91;;;9.73;91.25
71966;BME280;59836;52.132;5.442;2023-03-19T08:46:08;101401.66;;;9.75;91.52
71966;BME280;59836;52.132;5.442;2023-03-19T08:48:35;101407.63;;;9.77;91.40
71966;BME280;59836;52.132;5.442;2023-03-19T08:51:03;101409.19;;;9.73;91.06
71966;BME280;59836;52.132;5.442;2023-03-19T08:53:31;101406.84;;;9.77;91.66
71966;BME280;59836;52.132;5.442;2023-03-19T08:56:03;101415.03;;;9.82;91.57
71966;BME280;59836;52.132;5.442;2023-03-19T08:58:30;101419.44;;;9.88;90.89
71966;BME280;59836;52.132;5.442;2023-03-19T09:01:03;101409.75;;;9.92;90.82
71966;BME280;59836;52.132;5.442;2023-03-19T09:03:30;101416.94;;;10.03;91.44
71966;BME280;59836;52.132;5.442;2023-03-19T09:06:01;101409.97;;;10.13;90.60
71966;BME280;59836;52.132;5.442;2023-03-19T09:08:28;101410.03;;;10.18;90.07
71966;BME280;59836;52.132;5.442;2023-03-19T09:10:56;101410.19;;;10.51;90.31
71966;BME280;59836;52.132;5.442;2023-03-19T09:13:23;101410.22;;;10.83;89.61
71966;BME280;59836;52.132;5.442;2023-03-19T09:15:51;101413.28;;;10.92;89.31
71966;BME280;59836;52.132;5.442;2023-03-19T09:18:18;101414.34;;;10.91;87.93
71966;BME280;59836;52.132;5.442;2023-03-19T09:20:46;101421.47;;;10.97;88.00
71966;BME280;59836;52.132;5.442;2023-03-19T09:23:13;101426.69;;;11.04;87.64
71966;BME280;59836;52.132;5.442;2023-03-19T09:25:39;101421.81;;;11.06;87.32
71966;BME280;59836;52.132;5.442;2023-03-19T09:28:05;101431.53;;;10.97;87.05
71966;BME280;59836;52.132;5.442;2023-03-19T09:30:32;101430.34;;;10.87;87.57
71966;BME280;59836;52.132;5.442;2023-03-19T09:32:58;101437.09;;;10.85;87.55
71966;BME280;59836;52.132;5.442;2023-03-19T09:35:25;101442.22;;;10.81;87.55
71966;BME280;59836;52.132;5.442;2023-03-19T09:38:04;101439.47;;;10.76;87.19
71966;BME280;59836;52.132;5.442;2023-03-19T09:40:37;101441.00;;;10.67;86.62
71966;BME280;59836;52.132;5.442;2023-03-19T09:43:29;101447.44;;;10.60;86.77
71966;BME280;59836;52.132;5.442;2023-03-19T09:46:05;101448.25;;;10.61;86.95
71966;BME280;59836;52.132;5.442;2023-03-19T09:48:41;101457.41;;;10.55;86.73
71966;BME280;59836;52.132;5.442;2023-03-19T09:51:17;101464.44;;;10.51;86.98
71966;BME280;59836;52.132;5.442;2023-03-19T09:53:57;101462.56;;;10.56;87.87
71966;BME280;59836;52.132;5.442;2023-03-19T09:56:25;101465.84;;;10.58;87.42
71966;BME280;59836;52.132;5.442;2023-03-19T09:58:53;101475.38;;;10.61;87.53
71966;BME280;59836;52.132;5.442;2023-03-19T10:01:32;101472.97;;;10.65;87.46
71966;BME280;59836;52.132;5.442;2023-03-19T10:04:33;101482.19;;;10.63;87.21
71966;BME280;59836;52.132;5.442;2023-03-19T10:10:20;101489.41;;;10.53;87.25
71966;BME280;59836;52.132;5.442;2023-03-19T10:13:00;101486.34;;;10.49;87.16
71966;BME280;59836;52.132;5.442;2023-03-19T10:15:30;101483.16;;;10.52;87.58
71966;BME280;59836;52.132;5.442;2023-03-19T10:18:18;101485.63;;;10.54;87.72
71966;BME280;59836;52.132;5.442;2023-03-19T10:20:54;101489.63;;;10.51;87.39
71966;BME280;59836;52.132;5.442;2023-03-19T10:23:49;101490.72;;;10.50;87.87
71966;BME280;59836;52.132;5.442;2023-03-19T10:26:23;101491.28;;;10.52;87.48
71966;BME280;59836;52.132;5.442;2023-03-19T10:29:01;101491.91;;;10.59;87.60
71966;BME280;59836;52.132;5.442;2023-03-19T10:32:26;101487.56;;;10.58;87.66
71966;BME280;59836;52.132;5.442;2023-03-19T10:34:49;101491.34;;;10.57;87.67
71966;BME280;59836;52.132;5.442;2023-03-19T10:37:25;101490.84;;;10.60;87.27
71966;BME280;59836;52.132;5.442;2023-03-19T10:39:56;101490.56;;;10.62;87.05
71966;BME280;59836;52.132;5.442;2023-03-19T10:42:41;101490.25;;;10.58;87.31
71966;BME280;59836;52.132;5.442;2023-03-19T10:45:34;101490.31;;;10.63;87.43
71966;BME280;59836;52.132;5.442;2023-03-19T10:48:04;101497.19;;;10.71;87.62
71966;BME280;59836;52.132;5.442;2023-03-19T10:50:34;101493.72;;;10.76;87.51
71966;BME280;59836;52.132;5.442;2023-03-19T10:55:45;101510.06;;;10.81;87.00
71966;BME280;59836;52.132;5.442;2023-03-19T10:58:18;101507.53;;;10.74;87.07
71966;BME280;59836;52.132;5.442;2023-03-19T11:00:46;101510.00;;;10.76;86.80
71966;BME280;59836;52.132;5.442;2023-03-19T11:03:36;101512.66;;;10.71;87.00
71966;BME280;59836;52.132;5.442;2023-03-19T11:06:24;101510.50;;;10.73;87.49
71966;BME280;59836;52.132;5.442;2023-03-19T11:08:57;101515.03;;;10.67;87.26
71966;BME280;59836;52.132;5.442;2023-03-19T11:11:31;101531.59;;;10.66;87.49
71966;BME280;59836;52.132;5.442;2023-03-19T11:14:17;101528.25;;;10.58;87.47
71966;BME280;59836;52.132;5.442;2023-03-19T11:17:01;101543.44;;;10.59;87.89
71966;BME280;59836;52.132;5.442;2023-03-19T11:19:33;101539.66;;;10.60;87.62
71966;BME280;59836;52.132;5.442;2023-03-19T11:22:16;101536.38;;;10.58;88.04
71966;BME280;59836;52.132;5.442;2023-03-19T11:24:56;101534.75;;;10.57;87.79
71966;BME280;59836;52.132;5.442;2023-03-19T11:27:30;101530.16;;;10.58;88.05
71966;BME280;59836;52.132;5.442;2023-03-19T11:29:57;101525.59;;;10.63;88.58
71966;BME280;59836;52.132;5.442;2023-03-19T11:32:52;101532.38;;;10.66;87.97
71966;BME280;59836;52.132;5.442;2023-03-19T11:35:22;101534.28;;;10.66;88.21
71966;BME280;59836;52.132;5.442;2023-03-19T11:38:00;101531.06;;;10.69;87.59
71966;BME280;59836;52.132;5.442;2023-03-19T11:40:42;101538.94;;;10.70;87.74
71966;BME280;59836;52.132;5.442;2023-03-19T11:43:39;101540.91;;;10.75;87.62
71966;BME280;59836;52.132;5.442;2023-03-19T11:46:29;101535.50;;;10.75;87.66
71966;BME280;59836;52.132;5.442;2023-03-19T11:49:26;101539.28;;;10.74;87.32
71966;BME280;59836;52.132;5.442;2023-03-19T11:52:24;101546.84;;;10.72;87.53
71966;BME280;59836;52.132;5.442;2023-03-19T11:55:16;101539.22;;;10.69;87.18
71966;BME280;59836;52.132;5.442;2023-03-19T11:58:15;101537.50;;;10.62;87.22
71966;BME280;59836;52.132;5.442;2023-03-19T12:00:47;101542.66;;;10.64;86.78
71966;BME280;59836;52.132;5.442;2023-03-19T12:03:28;101533.22;;;10.67;86.54
71966;BME280;59836;52.132;5.442;2023-03-19T12:09:02;101546.28;;;10.70;87.41
71966;BME280;59836;52.132;5.442;2023-03-19T12:11:38;101553.34;;;10.71;87.55
71966;BME280;59836;52.132;5.442;2023-03-19T12:14:16;101546.34;;;10.75;87.73
71966;BME280;59836;52.132;5.442;2023-03-19T12:16:56;101553.91;;;10.73;87.23
71966;BME280;59836;52.132;5.442;2023-03-19T12:22:20;101545.88;;;10.61;87.74
71966;BME280;59836;52.132;5.442;2023-03-19T12:25:02;101545.09;;;10.60;87.64
71966;BME280;59836;52.132;5.442;2023-03-19T12:27:53;101540.72;;;10.59;87.46
71966;BME280;59836;52.132;5.442;2023-03-19T12:30:40;101539.97;;;10.64;87.50
71966;BME280;59836;52.132;5.442;2023-03-19T12:35:55;101537.75;;;10.83;87.63
71966;BME280;59836;52.132;5.442;2023-03-19T12:38:26;101537.25;;;10.86;87.13
71966;BME280;59836;52.132;5.442;2023-03-19T12:41:08;101547.09;;;10.92;87.15
71966;BME280;59836;52.132;5.442;2023-03-19T12:44:04;101555.84;;;11.00;86.63
71966;BME280;59836;52.132;5.442;2023-03-19T12:46:39;101561.34;;;11.05;86.99
71966;BME280;59836;52.132;5.442;2023-03-19T12:49:25;101560.84;;;11.08;86.58
71966;BME280;59836;52.132;5.442;2023-03-19T12:52:02;101559.50;;;11.11;86.28
71966;BME280;59836;52.132;5.442;2023-03-19T12:54:39;101557.63;;;11.16;86.10
71966;BME280;59836;52.132;5.442;2023-03-19T12:57:23;101566.97;;;11.26;86.16
71966;BME280;59836;52.132;5.442;2023-03-19T12:59:59;101570.84;;;11.35;86.15
71966;BME280;59836;52.132;5.442;2023-03-19T13:02:32;101560.91;;;11.46;85.59
71966;BME280;59836;52.132;5.442;2023-03-19T13:05:16;101562.34;;;11.54;85.16
71966;BME280;59836;52.132;5.442;2023-03-19T13:10:52;101561.69;;;11.74;84.79
71966;BME280;59836;52.132;5.442;2023-03-19T13:13:27;101568.50;;;11.76;84.55
71966;BME280;59836;52.132;5.442;2023-03-19T13:16:07;101570.38;;;11.76;83.71
71966;BME280;59836;52.132;5.442;2023-03-19T13:18:57;101568.56;;;11.81;84.10
71966;BME280;59836;52.132;5.442;2023-03-19T13:21:33;101563.75;;;11.94;83.96
71966;BME280;59836;52.132;5.442;2023-03-19T13:26:32;101571.09;;;11.99;83.72
71966;BME280;59836;52.132;5.442;2023-03-19T13:29:22;101569.22;;;11.99;83.47
71966;BME280;59836;52.132;5.442;2023-03-19T13:31:48;101561.06;;;11.99;83.24
71966;BME280;59836;52.132;5.442;2023-03-19T13:34:21;101559.50;;;12.03;83.62
71966;BME280;59836;52.132;5.442;2023-03-19T13:37:03;101553.00;;;12.09;82.82
71966;BME280;59836;52.132;5.442;2023-03-19T13:39:33;101554.72;;;12.26;82.39